Aérodrome :
LOGIN :

S'inscrire | Disclaimer

   EN    FR    IT 

 










Légende :    VFR   VFR Marginal   IFR   IFR Intensif   IFR Très Intensif
Visi : 
Plafond : 
>= 8 km
>= 3000ft
5 à 8 km
1000 à 3000 ft
1500m à 5 km
500 à 1000 ft
800 à 1500m
200 à 500 ft
< 800m
< 200 ft
Symboles :   Orages  Brouillard  Fortes neiges  Fortes précipitations  Vent > 20 kt
SIGMETs :   Divers  Orages  Givrage  Turbulence  Onde Orograph.  Cendres Volcan.






- Altitude de l'aérodrome : 788 ft
- Code IATA : DCM


LFCK - Castres-Mazamet

DERNIER METAR :
  • 172030Z AUTO 27010KT 9999 BKN019/// BKN026/// OVC046/// ///CB 07/05 Q1032 BECMG BKN008

METARs EXPIRÉS :
  • 172000Z AUTO 27010KT 9999 FEW018 BKN028 OVC046 07/05 Q1032 BECMG BKN008
  • 171930Z AUTO 27011KT 9999 BKN018 BKN037 OVC046 07/05 Q1032 BECMG BKN008
  • 171900Z AUTO 28010KT 9999 FEW020/// BKN031/// BKN045/// ///TCU 07/05 Q1031 TEMPO 4000 SHRA BECMG BKN008
  • 171830Z AUTO 28016KT 9999 -RADZ SCT039/// BKN045/// OVC058/// ///TCU 07/05 Q1031 TEMPO 4000 SHRA BECMG BKN008

TAF TAF LFCK
Valide du 17 à 18h jusqu'au 18 à 03h UTC


171700Z 1718/1803 29012KT 9999 SCT016 BKN025
TEMPO 1718/1720 4000 SHRA BKN009 SCT020TCU
BECMG 1720/1722 BKN008
PROB30
TEMPO 1720/1724 -SHRA



MET'MAP, la Météo Aéronautique d'un coup d'oeil ! - Copyright ORBIFLY Décembre 2007 - Disclaimer

ORBIFLY MET'MAP TEAM :

Programmation & Développement : Alexandra Zaïnal
Sur une idée originale de : Baudouin d'Aumeries
Assistance à la programmation : Marc-Olivier Méhu
Soutien technique & logistique : Manuel Goepfert

Contact : metmap@orbifly.com




SOURCES & CREDITS :

   NOAA